Silver Plume, Colorado
Current Conditions -  °F | °C
As of 4:11 AM on Tuesday 21 Oct 2014 (Local Time) from K0CO Reporting Station
Clear Clear  
Wind Chill: 22°   Ceiling: Unl
Heat Index: 32°   Visibility: 10mi
Dew Point: 30°   Wind: 15mph
Humidity: 93%   Direction: 280°W
Pressure: 30.41"   Gusts: NA
Location:  39.7°N, 105.73°W
Report Text: K0CO 211011Z AUTO 28013KT 10SM CLR 00/M01 A3041 RMK AO2
Loading
Personal Weather Stations






























Interactive Weather Map
Tropical Storm Tracking
New forecast layout! Learn more

10-Day Weather Forecast

Advertisements
Track Severe Weather on mobile